sensor_id;sensor_type;location;lat;lon;timestamp;temperature;humidity
36548;DHT22;22551;52.206;4.856;2022-10-28T00:03:19;14.50;99.90
36548;DHT22;22551;52.206;4.856;2022-10-28T00:08:21;14.50;99.90
36548;DHT22;22551;52.206;4.856;2022-10-28T00:13:23;14.50;99.90
36548;DHT22;22551;52.206;4.856;2022-10-28T00:18:28;14.50;99.90
36548;DHT22;22551;52.206;4.856;2022-10-28T00:23:30;14.50;99.90
36548;DHT22;22551;52.206;4.856;2022-10-28T00:28:32;14.40;99.90
36548;DHT22;22551;52.206;4.856;2022-10-28T00:33:36;14.40;99.90
36548;DHT22;22551;52.206;4.856;2022-10-28T00:38:39;14.40;99.90
36548;DHT22;22551;52.206;4.856;2022-10-28T00:43:44;14.30;99.90
36548;DHT22;22551;52.206;4.856;2022-10-28T00:48:49;14.30;99.90
36548;DHT22;22551;52.206;4.856;2022-10-28T00:53:54;14.20;99.90
36548;DHT22;22551;52.206;4.856;2022-10-28T00:58:59;14.20;99.90
36548;DHT22;22551;52.206;4.856;2022-10-28T01:04:05;14.10;99.90
36548;DHT22;22551;52.206;4.856;2022-10-28T01:09:08;14.20;99.90
36548;DHT22;22551;52.206;4.856;2022-10-28T01:14:21;14.10;99.90
36548;DHT22;22551;52.206;4.856;2022-10-28T01:25:47;14.10;99.90
36548;DHT22;22551;52.206;4.856;2022-10-28T01:31:27;14.00;99.90
36548;DHT22;22551;52.206;4.856;2022-10-28T01:36:37;14.00;99.90
36548;DHT22;22551;52.206;4.856;2022-10-28T01:41:47;13.90;99.90
36548;DHT22;22551;52.206;4.856;2022-10-28T01:46:58;13.90;99.90
36548;DHT22;22551;52.206;4.856;2022-10-28T01:52:03;13.80;99.90
36548;DHT22;22551;52.206;4.856;2022-10-28T01:57:08;13.80;99.90
36548;DHT22;22551;52.206;4.856;2022-10-28T02:02:15;13.80;99.90
36548;DHT22;22551;52.206;4.856;2022-10-28T02:07:18;13.70;99.90
36548;DHT22;22551;52.206;4.856;2022-10-28T02:12:25;13.70;99.90
36548;DHT22;22551;52.206;4.856;2022-10-28T02:17:39;13.70;99.90
36548;DHT22;22551;52.206;4.856;2022-10-28T02:22:50;13.60;99.90
36548;DHT22;22551;52.206;4.856;2022-10-28T02:27:58;13.60;99.90
36548;DHT22;22551;52.206;4.856;2022-10-28T02:33:09;13.60;99.90
36548;DHT22;22551;52.206;4.856;2022-10-28T02:38:16;13.60;99.90
36548;DHT22;22551;52.206;4.856;2022-10-28T02:43:22;13.60;99.90
36548;DHT22;22551;52.206;4.856;2022-10-28T02:48:30;13.60;99.90
36548;DHT22;22551;52.206;4.856;2022-10-28T02:53:43;13.60;99.90
36548;DHT22;22551;52.206;4.856;2022-10-28T02:58:51;13.60;99.90
36548;DHT22;22551;52.206;4.856;2022-10-28T03:03:55;13.70;99.90
36548;DHT22;22551;52.206;4.856;2022-10-28T03:08:57;13.70;99.90
36548;DHT22;22551;52.206;4.856;2022-10-28T03:13:59;13.60;99.90
36548;DHT22;22551;52.206;4.856;2022-10-28T03:19:03;13.60;99.90
36548;DHT22;22551;52.206;4.856;2022-10-28T03:24:05;13.60;99.90
36548;DHT22;22551;52.206;4.856;2022-10-28T03:29:08;13.70;99.90
36548;DHT22;22551;52.206;4.856;2022-10-28T03:34:11;13.60;99.90
36548;DHT22;22551;52.206;4.856;2022-10-28T03:39:14;13.60;99.90
36548;DHT22;22551;52.206;4.856;2022-10-28T03:44:16;13.60;99.90
36548;DHT22;22551;52.206;4.856;2022-10-28T03:49:19;13.60;99.90
36548;DHT22;22551;52.206;4.856;2022-10-28T03:54:21;13.50;99.90
36548;DHT22;22551;52.206;4.856;2022-10-28T03:59:24;13.50;99.90
36548;DHT22;22551;52.206;4.856;2022-10-28T04:04:27;13.50;99.90
36548;DHT22;22551;52.206;4.856;2022-10-28T04:09:29;13.60;99.90
36548;DHT22;22551;52.206;4.856;2022-10-28T04:14:31;13.50;99.90
36548;DHT22;22551;52.206;4.856;2022-10-28T04:19:35;13.50;99.90
36548;DHT22;22551;52.206;4.856;2022-10-28T04:24:37;13.50;99.90
36548;DHT22;22551;52.206;4.856;2022-10-28T04:29:39;13.50;99.90
36548;DHT22;22551;52.206;4.856;2022-10-28T04:34:43;13.40;99.90
36548;DHT22;22551;52.206;4.856;2022-10-28T04:39:45;13.40;99.90
36548;DHT22;22551;52.206;4.856;2022-10-28T04:44:47;13.40;99.90
36548;DHT22;22551;52.206;4.856;2022-10-28T04:49:51;13.40;99.90
36548;DHT22;22551;52.206;4.856;2022-10-28T04:54:53;13.30;99.90
36548;DHT22;22551;52.206;4.856;2022-10-28T04:59:56;13.20;99.90
36548;DHT22;22551;52.206;4.856;2022-10-28T05:04:59;13.10;99.90
36548;DHT22;22551;52.206;4.856;2022-10-28T05:10:04;13.20;99.90
36548;DHT22;22551;52.206;4.856;2022-10-28T05:15:08;13.10;99.90
36548;DHT22;22551;52.206;4.856;2022-10-28T05:20:14;13.10;99.90
36548;DHT22;22551;52.206;4.856;2022-10-28T05:25:19;13.20;99.90
36548;DHT22;22551;52.206;4.856;2022-10-28T05:30:21;13.20;99.90
36548;DHT22;22551;52.206;4.856;2022-10-28T05:35:24;13.20;99.90
36548;DHT22;22551;52.206;4.856;2022-10-28T05:40:26;13.20;99.90
36548;DHT22;22551;52.206;4.856;2022-10-28T05:45:29;13.30;99.90
36548;DHT22;22551;52.206;4.856;2022-10-28T05:50:33;13.30;99.90
36548;DHT22;22551;52.206;4.856;2022-10-28T05:55:35;13.20;99.90
36548;DHT22;22551;52.206;4.856;2022-10-28T06:00:37;13.30;99.90
36548;DHT22;22551;52.206;4.856;2022-10-28T06:05:43;13.40;99.90
36548;DHT22;22551;52.206;4.856;2022-10-28T06:10:49;13.40;99.90
36548;DHT22;22551;52.206;4.856;2022-10-28T06:15:53;13.40;99.90
36548;DHT22;22551;52.206;4.856;2022-10-28T06:20:58;13.50;99.90
36548;DHT22;22551;52.206;4.856;2022-10-28T06:26:02;13.40;99.90
36548;DHT22;22551;52.206;4.856;2022-10-28T06:31:06;13.50;99.90
36548;DHT22;22551;52.206;4.856;2022-10-28T06:36:10;13.50;99.90
36548;DHT22;22551;52.206;4.856;2022-10-28T06:41:12;13.50;99.90
36548;DHT22;22551;52.206;4.856;2022-10-28T06:46:15;13.50;99.90
36548;DHT22;22551;52.206;4.856;2022-10-28T06:51:18;13.40;99.90
36548;DHT22;22551;52.206;4.856;2022-10-28T06:56:20;13.50;99.90
36548;DHT22;22551;52.206;4.856;2022-10-28T07:01:23;13.50;99.90
36548;DHT22;22551;52.206;4.856;2022-10-28T07:06:26;13.50;99.90
36548;DHT22;22551;52.206;4.856;2022-10-28T07:11:29;13.50;99.90
36548;DHT22;22551;52.206;4.856;2022-10-28T07:16:31;13.50;99.90
36548;DHT22;22551;52.206;4.856;2022-10-28T07:21:34;13.60;99.90
36548;DHT22;22551;52.206;4.856;2022-10-28T07:26:37;13.70;99.90
36548;DHT22;22551;52.206;4.856;2022-10-28T07:31:41;13.70;99.90
36548;DHT22;22551;52.206;4.856;2022-10-28T07:36:48;13.70;99.90
36548;DHT22;22551;52.206;4.856;2022-10-28T07:41:51;13.70;99.90
36548;DHT22;22551;52.206;4.856;2022-10-28T07:46:53;13.80;99.90
36548;DHT22;22551;52.206;4.856;2022-10-28T07:51:56;14.00;99.90
36548;DHT22;22551;52.206;4.856;2022-10-28T07:56:59;14.20;99.90
36548;DHT22;22551;52.206;4.856;2022-10-28T08:02:02;14.20;99.90
36548;DHT22;22551;52.206;4.856;2022-10-28T08:07:06;14.30;99.90
36548;DHT22;22551;52.206;4.856;2022-10-28T08:12:09;14.40;99.90
36548;DHT22;22551;52.206;4.856;2022-10-28T08:17:14;14.50;99.90
36548;DHT22;22551;52.206;4.856;2022-10-28T08:22:18;14.60;99.90
36548;DHT22;22551;52.206;4.856;2022-10-28T08:27:21;14.70;99.90
36548;DHT22;22551;52.206;4.856;2022-10-28T08:32:23;14.80;99.90
36548;DHT22;22551;52.206;4.856;2022-10-28T08:37:27;14.90;99.90
36548;DHT22;22551;52.206;4.856;2022-10-28T08:42:36;15.00;99.90
36548;DHT22;22551;52.206;4.856;2022-10-28T08:47:54;15.10;99.90
36548;DHT22;22551;52.206;4.856;2022-10-28T08:53:12;15.30;99.90
36548;DHT22;22551;52.206;4.856;2022-10-28T08:58:20;15.40;99.90
36548;DHT22;22551;52.206;4.856;2022-10-28T09:03:25;15.50;99.90
36548;DHT22;22551;52.206;4.856;2022-10-28T09:08:33;15.60;99.90
36548;DHT22;22551;52.206;4.856;2022-10-28T09:13:52;15.70;99.90
36548;DHT22;22551;52.206;4.856;2022-10-28T09:19:03;15.90;99.90
36548;DHT22;22551;52.206;4.856;2022-10-28T09:24:16;16.00;99.90
36548;DHT22;22551;52.206;4.856;2022-10-28T09:29:32;16.10;99.90
36548;DHT22;22551;52.206;4.856;2022-10-28T09:34:43;16.20;99.90
36548;DHT22;22551;52.206;4.856;2022-10-28T09:39:51;16.40;99.90
36548;DHT22;22551;52.206;4.856;2022-10-28T09:44:58;16.70;99.90
36548;DHT22;22551;52.206;4.856;2022-10-28T09:50:04;16.90;99.90
36548;DHT22;22551;52.206;4.856;2022-10-28T09:55:19;17.20;99.90
36548;DHT22;22551;52.206;4.856;2022-10-28T10:00:22;17.40;99.90
36548;DHT22;22551;52.206;4.856;2022-10-28T10:05:25;17.60;99.90
36548;DHT22;22551;52.206;4.856;2022-10-28T10:10:38;17.60;99.90
36548;DHT22;22551;52.206;4.856;2022-10-28T10:15:50;17.70;99.90
36548;DHT22;22551;52.206;4.856;2022-10-28T10:20:56;17.90;99.90
36548;DHT22;22551;52.206;4.856;2022-10-28T10:26:02;18.00;99.90
36548;DHT22;22551;52.206;4.856;2022-10-28T10:31:17;18.10;99.90
36548;DHT22;22551;52.206;4.856;2022-10-28T10:36:22;18.30;99.90
36548;DHT22;22551;52.206;4.856;2022-10-28T10:41:37;18.40;99.90
36548;DHT22;22551;52.206;4.856;2022-10-28T10:46:40;18.40;99.90
36548;DHT22;22551;52.206;4.856;2022-10-28T10:51:52;18.50;99.90
36548;DHT22;22551;52.206;4.856;2022-10-28T10:57:07;18.50;99.90
36548;DHT22;22551;52.206;4.856;2022-10-28T11:02:20;18.60;99.90
36548;DHT22;22551;52.206;4.856;2022-10-28T11:07:24;18.70;99.90
36548;DHT22;22551;52.206;4.856;2022-10-28T11:12:32;18.80;99.90
36548;DHT22;22551;52.206;4.856;2022-10-28T11:17:37;18.90;99.90
36548;DHT22;22551;52.206;4.856;2022-10-28T11:22:50;18.90;99.90
36548;DHT22;22551;52.206;4.856;2022-10-28T11:34:26;19.10;99.90
36548;DHT22;22551;52.206;4.856;2022-10-28T11:39:45;19.20;99.90
36548;DHT22;22551;52.206;4.856;2022-10-28T11:45:00;19.20;99.90
36548;DHT22;22551;52.206;4.856;2022-10-28T11:50:28;19.30;99.90
36548;DHT22;22551;52.206;4.856;2022-10-28T11:55:38;19.40;99.90
36548;DHT22;22551;52.206;4.856;2022-10-28T12:00:53;19.40;99.90
36548;DHT22;22551;52.206;4.856;2022-10-28T12:06:09;19.50;99.90
36548;DHT22;22551;52.206;4.856;2022-10-28T12:11:23;19.50;99.90
36548;DHT22;22551;52.206;4.856;2022-10-28T12:16:37;19.60;99.90
36548;DHT22;22551;52.206;4.856;2022-10-28T12:21:43;19.70;99.90
36548;DHT22;22551;52.206;4.856;2022-10-28T12:26:51;19.70;99.90
36548;DHT22;22551;52.206;4.856;2022-10-28T12:32:00;19.60;99.90
36548;DHT22;22551;52.206;4.856;2022-10-28T12:37:09;19.70;99.90
36548;DHT22;22551;52.206;4.856;2022-10-28T12:42:19;19.70;99.90
36548;DHT22;22551;52.206;4.856;2022-10-28T12:47:27;19.80;99.90
36548;DHT22;22551;52.206;4.856;2022-10-28T12:58:52;19.90;99.90
36548;DHT22;22551;52.206;4.856;2022-10-28T13:04:01;19.90;99.90
36548;DHT22;22551;52.206;4.856;2022-10-28T13:09:14;20.00;99.90
36548;DHT22;22551;52.206;4.856;2022-10-28T13:14:59;19.90;99.90
36548;DHT22;22551;52.206;4.856;2022-10-28T13:20:18;19.70;99.90
36548;DHT22;22551;52.206;4.856;2022-10-28T13:25:44;19.70;99.90
36548;DHT22;22551;52.206;4.856;2022-10-28T13:30:52;19.80;99.90
36548;DHT22;22551;52.206;4.856;2022-10-28T13:36:09;19.70;99.90
36548;DHT22;22551;52.206;4.856;2022-10-28T13:41:33;19.80;99.90
36548;DHT22;22551;52.206;4.856;2022-10-28T13:52:37;20.00;99.90
36548;DHT22;22551;52.206;4.856;2022-10-28T13:57:43;20.00;99.90
36548;DHT22;22551;52.206;4.856;2022-10-28T14:02:53;20.00;99.90
36548;DHT22;22551;52.206;4.856;2022-10-28T14:07:59;20.10;99.90
36548;DHT22;22551;52.206;4.856;2022-10-28T14:13:04;20.00;99.90
36548;DHT22;22551;52.206;4.856;2022-10-28T14:18:21;20.10;99.90
36548;DHT22;22551;52.206;4.856;2022-10-28T14:29:41;19.80;99.90
36548;DHT22;22551;52.206;4.856;2022-10-28T14:34:45;19.70;99.90
36548;DHT22;22551;52.206;4.856;2022-10-28T14:39:59;19.50;99.90
36548;DHT22;22551;52.206;4.856;2022-10-28T14:45:20;19.40;99.90
36548;DHT22;22551;52.206;4.856;2022-10-28T14:50:36;19.40;99.90
36548;DHT22;22551;52.206;4.856;2022-10-28T14:55:44;19.30;99.90
36548;DHT22;22551;52.206;4.856;2022-10-28T15:00:57;19.20;99.90
36548;DHT22;22551;52.206;4.856;2022-10-28T15:06:22;19.10;99.90
36548;DHT22;22551;52.206;4.856;2022-10-28T15:11:26;19.10;99.90
36548;DHT22;22551;52.206;4.856;2022-10-28T15:16:31;19.00;99.90
36548;DHT22;22551;52.206;4.856;2022-10-28T15:21:34;18.90;99.90
36548;DHT22;22551;52.206;4.856;2022-10-28T15:26:37;18.80;99.90
36548;DHT22;22551;52.206;4.856;2022-10-28T15:32:05;18.70;99.90
36548;DHT22;22551;52.206;4.856;2022-10-28T15:37:15;18.60;99.90
36548;DHT22;22551;52.206;4.856;2022-10-28T15:42:36;18.60;99.90
36548;DHT22;22551;52.206;4.856;2022-10-28T15:47:43;18.50;99.90
36548;DHT22;22551;52.206;4.856;2022-10-28T15:52:46;18.40;99.90
36548;DHT22;22551;52.206;4.856;2022-10-28T15:57:51;18.30;99.90
36548;DHT22;22551;52.206;4.856;2022-10-28T16:02:57;18.20;99.90
36548;DHT22;22551;52.206;4.856;2022-10-28T16:08:02;18.00;99.90
36548;DHT22;22551;52.206;4.856;2022-10-28T16:13:06;18.00;99.90
36548;DHT22;22551;52.206;4.856;2022-10-28T16:18:19;17.80;99.90
36548;DHT22;22551;52.206;4.856;2022-10-28T16:23:22;17.70;99.90
36548;DHT22;22551;52.206;4.856;2022-10-28T16:28:26;17.60;99.90
36548;DHT22;22551;52.206;4.856;2022-10-28T16:33:32;17.50;99.90
36548;DHT22;22551;52.206;4.856;2022-10-28T16:38:36;17.40;99.90
36548;DHT22;22551;52.206;4.856;2022-10-28T16:43:38;17.40;99.90
36548;DHT22;22551;52.206;4.856;2022-10-28T16:48:42;17.30;99.90
36548;DHT22;22551;52.206;4.856;2022-10-28T16:53:44;17.30;99.90
36548;DHT22;22551;52.206;4.856;2022-10-28T16:58:49;17.20;99.90
36548;DHT22;22551;52.206;4.856;2022-10-28T17:03:52;17.00;99.90
36548;DHT22;22551;52.206;4.856;2022-10-28T17:08:54;16.90;99.90
36548;DHT22;22551;52.206;4.856;2022-10-28T17:13:56;16.80;99.90
36548;DHT22;22551;52.206;4.856;2022-10-28T17:19:00;16.70;99.90
36548;DHT22;22551;52.206;4.856;2022-10-28T17:24:03;16.60;99.90
36548;DHT22;22551;52.206;4.856;2022-10-28T17:29:07;16.50;99.90
36548;DHT22;22551;52.206;4.856;2022-10-28T17:34:11;16.30;99.90
36548;DHT22;22551;52.206;4.856;2022-10-28T17:39:14;16.20;99.90
36548;DHT22;22551;52.206;4.856;2022-10-28T17:44:17;16.10;99.90
36548;DHT22;22551;52.206;4.856;2022-10-28T17:49:21;16.00;99.90
36548;DHT22;22551;52.206;4.856;2022-10-28T17:54:23;15.90;99.90
36548;DHT22;22551;52.206;4.856;2022-10-28T17:59:25;15.80;99.90
36548;DHT22;22551;52.206;4.856;2022-10-28T18:04:29;15.70;99.90
36548;DHT22;22551;52.206;4.856;2022-10-28T18:09:31;15.70;99.90
36548;DHT22;22551;52.206;4.856;2022-10-28T18:14:33;15.60;99.90
36548;DHT22;22551;52.206;4.856;2022-10-28T18:19:37;15.50;99.90
36548;DHT22;22551;52.206;4.856;2022-10-28T18:24:39;15.50;99.90
36548;DHT22;22551;52.206;4.856;2022-10-28T18:29:41;15.50;99.90
36548;DHT22;22551;52.206;4.856;2022-10-28T18:34:47;15.40;99.90
36548;DHT22;22551;52.206;4.856;2022-10-28T18:39:49;15.40;99.90
36548;DHT22;22551;52.206;4.856;2022-10-28T18:44:51;15.40;99.90
36548;DHT22;22551;52.206;4.856;2022-10-28T18:49:59;15.40;99.90
36548;DHT22;22551;52.206;4.856;2022-10-28T18:55:01;15.30;99.90
36548;DHT22;22551;52.206;4.856;2022-10-28T19:00:04;15.30;99.90
36548;DHT22;22551;52.206;4.856;2022-10-28T19:05:09;15.20;99.90
36548;DHT22;22551;52.206;4.856;2022-10-28T19:10:11;15.10;99.90
36548;DHT22;22551;52.206;4.856;2022-10-28T19:15:14;15.00;99.90
36548;DHT22;22551;52.206;4.856;2022-10-28T19:20:18;14.80;99.90
36548;DHT22;22551;52.206;4.856;2022-10-28T19:25:20;14.70;99.90
36548;DHT22;22551;52.206;4.856;2022-10-28T19:30:22;14.60;99.90
36548;DHT22;22551;52.206;4.856;2022-10-28T19:35:26;14.50;99.90
36548;DHT22;22551;52.206;4.856;2022-10-28T19:40:31;14.40;99.90
36548;DHT22;22551;52.206;4.856;2022-10-28T19:45:33;14.20;99.90
36548;DHT22;22551;52.206;4.856;2022-10-28T19:50:36;14.10;99.90
36548;DHT22;22551;52.206;4.856;2022-10-28T19:55:38;14.10;99.90
36548;DHT22;22551;52.206;4.856;2022-10-28T20:00:41;14.00;99.90
36548;DHT22;22551;52.206;4.856;2022-10-28T20:05:44;13.90;99.90
36548;DHT22;22551;52.206;4.856;2022-10-28T20:10:56;13.80;99.90
36548;DHT22;22551;52.206;4.856;2022-10-28T20:16:01;13.70;99.90
36548;DHT22;22551;52.206;4.856;2022-10-28T20:21:06;13.60;99.90
36548;DHT22;22551;52.206;4.856;2022-10-28T20:26:12;13.50;99.90
36548;DHT22;22551;52.206;4.856;2022-10-28T20:31:15;13.50;99.90
36548;DHT22;22551;52.206;4.856;2022-10-28T20:36:24;13.40;99.90
36548;DHT22;22551;52.206;4.856;2022-10-28T20:41:29;13.30;99.90
36548;DHT22;22551;52.206;4.856;2022-10-28T20:46:33;13.20;99.90
36548;DHT22;22551;52.206;4.856;2022-10-28T20:51:37;13.20;99.90
36548;DHT22;22551;52.206;4.856;2022-10-28T20:56:39;13.10;99.90
36548;DHT22;22551;52.206;4.856;2022-10-28T21:01:42;13.00;99.90
36548;DHT22;22551;52.206;4.856;2022-10-28T21:06:46;12.90;99.90
36548;DHT22;22551;52.206;4.856;2022-10-28T21:11:48;12.80;99.90
36548;DHT22;22551;52.206;4.856;2022-10-28T21:16:50;12.80;99.90
36548;DHT22;22551;52.206;4.856;2022-10-28T21:21:54;12.80;99.90
36548;DHT22;22551;52.206;4.856;2022-10-28T21:26:56;12.80;99.90
36548;DHT22;22551;52.206;4.856;2022-10-28T21:31:58;12.70;99.90
36548;DHT22;22551;52.206;4.856;2022-10-28T21:37:02;12.70;99.90
36548;DHT22;22551;52.206;4.856;2022-10-28T21:42:04;12.60;99.90
36548;DHT22;22551;52.206;4.856;2022-10-28T21:47:06;12.60;99.90
36548;DHT22;22551;52.206;4.856;2022-10-28T21:52:10;12.60;99.90
36548;DHT22;22551;52.206;4.856;2022-10-28T21:57:12;12.60;99.90
36548;DHT22;22551;52.206;4.856;2022-10-28T22:02:14;12.60;99.90
36548;DHT22;22551;52.206;4.856;2022-10-28T22:07:18;12.50;99.90
36548;DHT22;22551;52.206;4.856;2022-10-28T22:12:20;12.40;99.90
36548;DHT22;22551;52.206;4.856;2022-10-28T22:17:22;12.40;99.90
36548;DHT22;22551;52.206;4.856;2022-10-28T22:22:26;12.30;99.90
36548;DHT22;22551;52.206;4.856;2022-10-28T22:27:29;12.30;99.90
36548;DHT22;22551;52.206;4.856;2022-10-28T22:32:31;12.30;99.90
36548;DHT22;22551;52.206;4.856;2022-10-28T22:37:35;12.30;99.90
36548;DHT22;22551;52.206;4.856;2022-10-28T22:42:37;12.20;99.90
36548;DHT22;22551;52.206;4.856;2022-10-28T22:47:39;12.30;99.90
36548;DHT22;22551;52.206;4.856;2022-10-28T22:52:43;12.30;99.90
36548;DHT22;22551;52.206;4.856;2022-10-28T22:57:45;12.20;99.90
36548;DHT22;22551;52.206;4.856;2022-10-28T23:02:47;12.10;99.90
36548;DHT22;22551;52.206;4.856;2022-10-28T23:07:51;12.10;99.90
36548;DHT22;22551;52.206;4.856;2022-10-28T23:12:54;12.10;99.90
36548;DHT22;22551;52.206;4.856;2022-10-28T23:17:56;12.00;99.90
36548;DHT22;22551;52.206;4.856;2022-10-28T23:23:00;11.90;99.90
36548;DHT22;22551;52.206;4.856;2022-10-28T23:28:03;11.90;99.90
36548;DHT22;22551;52.206;4.856;2022-10-28T23:33:06;11.90;99.90
36548;DHT22;22551;52.206;4.856;2022-10-28T23:38:09;12.00;99.90
36548;DHT22;22551;52.206;4.856;2022-10-28T23:43:16;12.00;99.90
36548;DHT22;22551;52.206;4.856;2022-10-28T23:48:18;11.90;99.90
36548;DHT22;22551;52.206;4.856;2022-10-28T23:53:22;11.90;99.90
36548;DHT22;22551;52.206;4.856;2022-10-28T23:58:24;12.00;99.90
